sensor_id;sensor_type;location;lat;lon;timestamp;pressure;altitude;pressure_sealevel;temperature;humidity
25430;BME280;13360;48.152;-1.788;2023-08-07T00:01:46;102145.47;;;16.53;100.00
25430;BME280;13360;48.152;-1.788;2023-08-07T00:04:12;102138.53;;;16.51;100.00
25430;BME280;13360;48.152;-1.788;2023-08-07T00:06:37;102133.56;;;16.48;100.00
25430;BME280;13360;48.152;-1.788;2023-08-07T00:09:02;102141.41;;;16.45;100.00
25430;BME280;13360;48.152;-1.788;2023-08-07T00:11:28;102151.44;;;16.46;100.00
25430;BME280;13360;48.152;-1.788;2023-08-07T00:13:53;102148.66;;;16.46;100.00
25430;BME280;13360;48.152;-1.788;2023-08-07T00:16:18;102137.25;;;16.43;100.00
25430;BME280;13360;48.152;-1.788;2023-08-07T00:18:44;102127.53;;;16.40;100.00
25430;BME280;13360;48.152;-1.788;2023-08-07T00:21:09;102126.38;;;16.41;100.00
25430;BME280;13360;48.152;-1.788;2023-08-07T00:23:34;102123.69;;;16.36;100.00
25430;BME280;13360;48.152;-1.788;2023-08-07T00:25:59;102124.81;;;16.35;100.00
25430;BME280;13360;48.152;-1.788;2023-08-07T00:28:24;102125.44;;;16.32;100.00
25430;BME280;13360;48.152;-1.788;2023-08-07T00:30:50;102126.03;;;16.29;100.00
25430;BME280;13360;48.152;-1.788;2023-08-07T00:33:15;102113.84;;;16.25;100.00
25430;BME280;13360;48.152;-1.788;2023-08-07T00:35:40;102114.72;;;16.21;100.00
25430;BME280;13360;48.152;-1.788;2023-08-07T00:38:05;102127.31;;;16.18;100.00
25430;BME280;13360;48.152;-1.788;2023-08-07T00:40:37;102142.06;;;16.19;100.00
25430;BME280;13360;48.152;-1.788;2023-08-07T00:43:03;102136.50;;;16.19;100.00
25430;BME280;13360;48.152;-1.788;2023-08-07T00:45:28;102149.59;;;16.18;100.00
25430;BME280;13360;48.152;-1.788;2023-08-07T00:47:54;102124.81;;;16.16;100.00
25430;BME280;13360;48.152;-1.788;2023-08-07T00:50:19;102150.22;;;16.15;100.00
25430;BME280;13360;48.152;-1.788;2023-08-07T00:52:44;102141.31;;;16.13;100.00
25430;BME280;13360;48.152;-1.788;2023-08-07T00:55:09;102123.78;;;16.12;100.00
25430;BME280;13360;48.152;-1.788;2023-08-07T00:57:35;102117.97;;;16.09;100.00
25430;BME280;13360;48.152;-1.788;2023-08-07T01:00:01;102114.66;;;16.07;100.00
25430;BME280;13360;48.152;-1.788;2023-08-07T01:02:27;102120.00;;;16.03;100.00
25430;BME280;13360;48.152;-1.788;2023-08-07T01:04:52;102134.22;;;16.02;100.00
25430;BME280;13360;48.152;-1.788;2023-08-07T01:07:17;102139.78;;;16.02;100.00
25430;BME280;13360;48.152;-1.788;2023-08-07T01:09:43;102138.13;;;16.01;100.00
25430;BME280;13360;48.152;-1.788;2023-08-07T01:12:22;102142.34;;;15.98;100.00
25430;BME280;13360;48.152;-1.788;2023-08-07T01:14:51;102135.44;;;15.96;100.00
25430;BME280;13360;48.152;-1.788;2023-08-07T01:17:19;102134.91;;;15.94;100.00
25430;BME280;13360;48.152;-1.788;2023-08-07T01:19:45;102137.69;;;15.94;100.00
25430;BME280;13360;48.152;-1.788;2023-08-07T01:24:36;102140.53;;;15.89;100.00
25430;BME280;13360;48.152;-1.788;2023-08-07T01:29:51;102138.66;;;15.84;100.00
25430;BME280;13360;48.152;-1.788;2023-08-07T01:33:09;102150.09;;;15.82;100.00
25430;BME280;13360;48.152;-1.788;2023-08-07T01:35:05;102156.22;;;15.84;100.00
25430;BME280;13360;48.152;-1.788;2023-08-07T01:37:34;102161.78;;;15.84;100.00
25430;BME280;13360;48.152;-1.788;2023-08-07T01:40:01;102166.22;;;15.85;100.00
25430;BME280;13360;48.152;-1.788;2023-08-07T01:42:29;102155.38;;;15.84;100.00
25430;BME280;13360;48.152;-1.788;2023-08-07T01:44:54;102155.13;;;15.80;100.00
25430;BME280;13360;48.152;-1.788;2023-08-07T01:47:19;102159.34;;;15.78;100.00
25430;BME280;13360;48.152;-1.788;2023-08-07T01:49:44;102168.53;;;15.78;100.00
25430;BME280;13360;48.152;-1.788;2023-08-07T01:52:10;102160.75;;;15.75;100.00
25430;BME280;13360;48.152;-1.788;2023-08-07T01:54:36;102161.88;;;15.74;100.00
25430;BME280;13360;48.152;-1.788;2023-08-07T01:57:01;102154.97;;;15.72;100.00
25430;BME280;13360;48.152;-1.788;2023-08-07T01:59:26;102164.97;;;15.73;100.00
25430;BME280;13360;48.152;-1.788;2023-08-07T02:01:52;102168.06;;;15.71;100.00
25430;BME280;13360;48.152;-1.788;2023-08-07T02:04:17;102179.19;;;15.71;100.00
25430;BME280;13360;48.152;-1.788;2023-08-07T02:06:42;102180.84;;;15.72;100.00
25430;BME280;13360;48.152;-1.788;2023-08-07T02:09:07;102175.88;;;15.69;100.00
25430;BME280;13360;48.152;-1.788;2023-08-07T02:11:33;102173.69;;;15.66;100.00
25430;BME280;13360;48.152;-1.788;2023-08-07T02:13:58;102169.25;;;15.65;100.00
25430;BME280;13360;48.152;-1.788;2023-08-07T02:16:23;102165.34;;;15.66;100.00
25430;BME280;13360;48.152;-1.788;2023-08-07T02:18:48;102177.31;;;15.67;100.00
25430;BME280;13360;48.152;-1.788;2023-08-07T02:21:13;102176.47;;;15.66;100.00
25430;BME280;13360;48.152;-1.788;2023-08-07T02:23:39;102170.38;;;15.64;100.00
25430;BME280;13360;48.152;-1.788;2023-08-07T02:26:04;102177.06;;;15.63;100.00
25430;BME280;13360;48.152;-1.788;2023-08-07T02:28:29;102179.31;;;15.61;100.00
25430;BME280;13360;48.152;-1.788;2023-08-07T02:30:54;102179.88;;;15.58;100.00
25430;BME280;13360;48.152;-1.788;2023-08-07T02:33:20;102172.41;;;15.53;100.00
25430;BME280;13360;48.152;-1.788;2023-08-07T02:35:45;102182.19;;;15.51;100.00
25430;BME280;13360;48.152;-1.788;2023-08-07T02:38:10;102184.44;;;15.49;100.00
25430;BME280;13360;48.152;-1.788;2023-08-07T02:40:36;102179.16;;;15.47;100.00
25430;BME280;13360;48.152;-1.788;2023-08-07T02:43:01;102182.25;;;15.46;100.00
25430;BME280;13360;48.152;-1.788;2023-08-07T02:45:26;102181.72;;;15.44;100.00
25430;BME280;13360;48.152;-1.788;2023-08-07T02:47:51;102182.28;;;15.41;100.00
25430;BME280;13360;48.152;-1.788;2023-08-07T02:50:16;102179.50;;;15.41;100.00
25430;BME280;13360;48.152;-1.788;2023-08-07T02:52:42;102175.63;;;15.37;100.00
25430;BME280;13360;48.152;-1.788;2023-08-07T02:55:07;102178.44;;;15.37;100.00
25430;BME280;13360;48.152;-1.788;2023-08-07T02:57:32;102182.63;;;15.34;100.00
25430;BME280;13360;48.152;-1.788;2023-08-07T02:59:58;102182.09;;;15.32;100.00
25430;BME280;13360;48.152;-1.788;2023-08-07T03:02:23;102192.41;;;15.32;100.00
25430;BME280;13360;48.152;-1.788;2023-08-07T03:04:48;102186.00;;;15.31;100.00
25430;BME280;13360;48.152;-1.788;2023-08-07T03:07:13;102180.75;;;15.30;100.00
25430;BME280;13360;48.152;-1.788;2023-08-07T03:09:38;102184.94;;;15.27;100.00
25430;BME280;13360;48.152;-1.788;2023-08-07T03:12:04;102184.94;;;15.27;100.00
25430;BME280;13360;48.152;-1.788;2023-08-07T03:14:30;102184.13;;;15.27;100.00
25430;BME280;13360;48.152;-1.788;2023-08-07T03:16:55;102188.03;;;15.25;100.00
25430;BME280;13360;48.152;-1.788;2023-08-07T03:19:20;102181.91;;;15.23;100.00
25430;BME280;13360;48.152;-1.788;2023-08-07T03:21:46;102188.59;;;15.22;100.00
25430;BME280;13360;48.152;-1.788;2023-08-07T03:24:11;102179.44;;;15.22;100.00
25430;BME280;13360;48.152;-1.788;2023-08-07T03:26:37;102183.03;;;15.22;100.00
25430;BME280;13360;48.152;-1.788;2023-08-07T03:29:02;102185.28;;;15.20;100.00
25430;BME280;13360;48.152;-1.788;2023-08-07T03:31:27;102188.34;;;15.19;100.00
25430;BME280;13360;48.152;-1.788;2023-08-07T03:33:52;102179.16;;;15.18;100.00
25430;BME280;13360;48.152;-1.788;2023-08-07T03:36:18;102177.50;;;15.17;100.00
25430;BME280;13360;48.152;-1.788;2023-08-07T03:38:43;102178.63;;;15.16;100.00
25430;BME280;13360;48.152;-1.788;2023-08-07T03:41:09;102176.97;;;15.15;100.00
25430;BME280;13360;48.152;-1.788;2023-08-07T03:43:34;102176.72;;;15.12;100.00
25430;BME280;13360;48.152;-1.788;2023-08-07T03:45:59;102184.78;;;15.13;100.00
25430;BME280;13360;48.152;-1.788;2023-08-07T03:48:24;102172.81;;;15.13;100.00
25430;BME280;13360;48.152;-1.788;2023-08-07T03:50:50;102181.16;;;15.13;100.00
25430;BME280;13360;48.152;-1.788;2023-08-07T03:53:15;102173.13;;;15.11;100.00
25430;BME280;13360;48.152;-1.788;2023-08-07T03:55:40;102179.81;;;15.10;100.00
25430;BME280;13360;48.152;-1.788;2023-08-07T03:58:07;102177.31;;;15.09;100.00
25430;BME280;13360;48.152;-1.788;2023-08-07T04:00:32;102170.09;;;15.08;100.00
25430;BME280;13360;48.152;-1.788;2023-08-07T04:02:57;102172.34;;;15.06;100.00
25430;BME280;13360;48.152;-1.788;2023-08-07T04:05:22;102167.59;;;15.06;100.00
25430;BME280;13360;48.152;-1.788;2023-08-07T04:07:48;102152.09;;;15.00;100.00
25430;BME280;13360;48.152;-1.788;2023-08-07T04:10:13;102131.50;;;14.96;100.00
25430;BME280;13360;48.152;-1.788;2023-08-07T04:12:38;102145.41;;;14.96;100.00
25430;BME280;13360;48.152;-1.788;2023-08-07T04:15:03;102142.94;;;14.94;100.00
25430;BME280;13360;48.152;-1.788;2023-08-07T04:17:29;102132.94;;;14.93;100.00
25430;BME280;13360;48.152;-1.788;2023-08-07T04:19:54;102128.78;;;14.91;100.00
25430;BME280;13360;48.152;-1.788;2023-08-07T04:22:19;102123.28;;;14.86;100.00
25430;BME280;13360;48.152;-1.788;2023-08-07T04:24:44;102127.78;;;14.82;100.00
25430;BME280;13360;48.152;-1.788;2023-08-07T04:27:10;102126.66;;;14.78;100.00
25430;BME280;13360;48.152;-1.788;2023-08-07T04:29:35;102138.34;;;14.80;100.00
25430;BME280;13360;48.152;-1.788;2023-08-07T04:32:00;102150.84;;;14.82;100.00
25430;BME280;13360;48.152;-1.788;2023-08-07T04:34:25;102148.91;;;14.83;100.00
25430;BME280;13360;48.152;-1.788;2023-08-07T04:36:50;102142.50;;;14.82;100.00
25430;BME280;13360;48.152;-1.788;2023-08-07T04:39:18;102140.03;;;14.81;100.00
25430;BME280;13360;48.152;-1.788;2023-08-07T04:41:43;102141.97;;;14.80;100.00
25430;BME280;13360;48.152;-1.788;2023-08-07T04:44:09;102142.25;;;14.79;100.00
25430;BME280;13360;48.152;-1.788;2023-08-07T04:46:34;102145.59;;;14.81;100.00
25430;BME280;13360;48.152;-1.788;2023-08-07T04:48:59;102136.69;;;14.79;100.00
25430;BME280;13360;48.152;-1.788;2023-08-07T04:51:26;102133.06;;;14.78;100.00
25430;BME280;13360;48.152;-1.788;2023-08-07T04:53:51;102122.22;;;14.77;100.00
25430;BME280;13360;48.152;-1.788;2023-08-07T04:56:16;102108.91;;;14.74;100.00
25430;BME280;13360;48.152;-1.788;2023-08-07T04:58:42;102098.66;;;14.69;100.00
25430;BME280;13360;48.152;-1.788;2023-08-07T05:01:09;102106.47;;;14.67;100.00
25430;BME280;13360;48.152;-1.788;2023-08-07T05:03:34;102114.28;;;14.65;100.00
25430;BME280;13360;48.152;-1.788;2023-08-07T05:06:00;102125.41;;;14.65;100.00
25430;BME280;13360;48.152;-1.788;2023-08-07T05:08:25;102148.19;;;14.67;100.00
25430;BME280;13360;48.152;-1.788;2023-08-07T05:10:51;102173.75;;;14.69;100.00
25430;BME280;13360;48.152;-1.788;2023-08-07T05:13:16;102197.66;;;14.70;100.00
25430;BME280;13360;48.152;-1.788;2023-08-07T05:15:41;102218.78;;;14.71;100.00
25430;BME280;13360;48.152;-1.788;2023-08-07T05:18:07;102234.91;;;14.74;100.00
25430;BME280;13360;48.152;-1.788;2023-08-07T05:20:32;102257.69;;;14.76;100.00
25430;BME280;13360;48.152;-1.788;2023-08-07T05:22:57;102281.34;;;14.79;100.00
25430;BME280;13360;48.152;-1.788;2023-08-07T05:25:22;102311.34;;;14.82;100.00
25430;BME280;13360;48.152;-1.788;2023-08-07T05:27:48;102330.81;;;14.82;100.00
25430;BME280;13360;48.152;-1.788;2023-08-07T05:30:13;102363.09;;;14.83;100.00
25430;BME280;13360;48.152;-1.788;2023-08-07T05:32:38;102378.66;;;14.84;100.00
25430;BME280;13360;48.152;-1.788;2023-08-07T05:35:04;102398.13;;;14.84;100.00
25430;BME280;13360;48.152;-1.788;2023-08-07T05:37:30;102431.78;;;14.87;100.00
25430;BME280;13360;48.152;-1.788;2023-08-07T05:39:56;102450.97;;;14.89;100.00
25430;BME280;13360;48.152;-1.788;2023-08-07T05:42:21;102469.31;;;14.90;100.00
25430;BME280;13360;48.152;-1.788;2023-08-07T05:44:47;102492.41;;;14.90;100.00
25430;BME280;13360;48.152;-1.788;2023-08-07T05:47:12;102507.16;;;14.91;100.00
25430;BME280;13360;48.152;-1.788;2023-08-07T05:49:37;102531.06;;;14.92;100.00
25430;BME280;13360;48.152;-1.788;2023-08-07T05:52:02;102555.84;;;14.93;100.00
25430;BME280;13360;48.152;-1.788;2023-08-07T05:54:28;102569.75;;;14.93;100.00
25430;BME280;13360;48.152;-1.788;2023-08-07T05:56:53;102586.16;;;14.95;100.00
25430;BME280;13360;48.152;-1.788;2023-08-07T05:59:18;102608.97;;;14.97;100.00
25430;BME280;13360;48.152;-1.788;2023-08-07T06:01:44;102621.22;;;14.96;100.00
25430;BME280;13360;48.152;-1.788;2023-08-07T06:04:09;102646.81;;;14.98;100.00
25430;BME280;13360;48.152;-1.788;2023-08-07T06:06:36;102691.31;;;14.98;100.00
25430;BME280;13360;48.152;-1.788;2023-08-07T06:09:01;102716.38;;;14.98;100.00
25430;BME280;13360;48.152;-1.788;2023-08-07T06:11:31;102752.56;;;14.98;100.00
25430;BME280;13360;48.152;-1.788;2023-08-07T06:13:56;102773.69;;;14.99;100.00
25430;BME280;13360;48.152;-1.788;2023-08-07T06:16:21;102791.25;;;15.00;100.00
25430;BME280;13360;48.152;-1.788;2023-08-07T06:18:47;102821.59;;;15.01;100.00
25430;BME280;13360;48.152;-1.788;2023-08-07T06:21:12;102843.84;;;15.01;100.00
25430;BME280;13360;48.152;-1.788;2023-08-07T06:23:37;102859.72;;;15.01;100.00
25430;BME280;13360;48.152;-1.788;2023-08-07T06:26:02;102876.16;;;15.02;100.00
25430;BME280;13360;48.152;-1.788;2023-08-07T06:28:29;102897.28;;;15.03;100.00
25430;BME280;13360;48.152;-1.788;2023-08-07T06:31:00;102924.84;;;15.05;100.00
25430;BME280;13360;48.152;-1.788;2023-08-07T06:33:25;102982.47;;;15.04;100.00
25430;BME280;13360;48.152;-1.788;2023-08-07T06:35:52;103070.16;;;15.07;100.00
25430;BME280;13360;48.152;-1.788;2023-08-07T06:38:17;103099.09;;;15.11;100.00
25430;BME280;13360;48.152;-1.788;2023-08-07T06:40:42;103128.91;;;15.15;100.00
25430;BME280;13360;48.152;-1.788;2023-08-07T06:43:07;103162.88;;;15.17;100.00
25430;BME280;13360;48.152;-1.788;2023-08-07T06:45:32;103175.41;;;15.20;100.00
25430;BME280;13360;48.152;-1.788;2023-08-07T06:47:58;103226.13;;;15.22;100.00
25430;BME280;13360;48.152;-1.788;2023-08-07T06:50:23;103259.84;;;15.25;100.00
25430;BME280;13360;48.152;-1.788;2023-08-07T06:52:49;103290.50;;;15.31;100.00
25430;BME280;13360;48.152;-1.788;2023-08-07T06:55:14;103325.06;;;15.35;100.00
25430;BME280;13360;48.152;-1.788;2023-08-07T06:57:39;103353.22;;;15.38;100.00
25430;BME280;13360;48.152;-1.788;2023-08-07T07:00:05;103378.63;;;15.42;100.00
25430;BME280;13360;48.152;-1.788;2023-08-07T07:02:30;103440.50;;;15.49;100.00
25430;BME280;13360;48.152;-1.788;2023-08-07T07:04:55;103501.25;;;15.52;100.00
25430;BME280;13360;48.152;-1.788;2023-08-07T07:07:21;103518.00;;;15.57;100.00
25430;BME280;13360;48.152;-1.788;2023-08-07T07:09:46;103568.75;;;15.59;100.00
25430;BME280;13360;48.152;-1.788;2023-08-07T07:12:11;103601.19;;;15.65;100.00
25430;BME280;13360;48.152;-1.788;2023-08-07T07:14:36;103626.81;;;15.67;100.00
25430;BME280;13360;48.152;-1.788;2023-08-07T07:17:01;103637.19;;;15.72;100.00
25430;BME280;13360;48.152;-1.788;2023-08-07T07:19:27;103669.00;;;15.76;100.00
25430;BME280;13360;48.152;-1.788;2023-08-07T07:21:52;103720.31;;;15.80;100.00
25430;BME280;13360;48.152;-1.788;2023-08-07T07:24:18;103750.47;;;15.83;100.00
25430;BME280;13360;48.152;-1.788;2023-08-07T07:26:43;103787.34;;;15.90;100.00
25430;BME280;13360;48.152;-1.788;2023-08-07T07:29:08;103817.22;;;15.95;100.00
25430;BME280;13360;48.152;-1.788;2023-08-07T07:31:34;103852.69;;;15.99;100.00
25430;BME280;13360;48.152;-1.788;2023-08-07T07:33:59;103896.56;;;16.04;100.00
25430;BME280;13360;48.152;-1.788;2023-08-07T07:36:24;103950.44;;;16.09;100.00
25430;BME280;13360;48.152;-1.788;2023-08-07T07:38:49;103982.38;;;16.19;100.00
25430;BME280;13360;48.152;-1.788;2023-08-07T07:41:15;104005.69;;;16.29;100.00
25430;BME280;13360;48.152;-1.788;2023-08-07T07:43:40;104045.97;;;16.38;100.00
25430;BME280;13360;48.152;-1.788;2023-08-07T07:46:06;104075.06;;;16.42;100.00
25430;BME280;13360;48.152;-1.788;2023-08-07T07:48:31;104117.66;;;16.55;100.00
25430;BME280;13360;48.152;-1.788;2023-08-07T07:51:03;104185.34;;;17.17;100.00
25430;BME280;13360;48.152;-1.788;2023-08-07T07:53:28;104179.97;;;17.76;100.00
25430;BME280;13360;48.152;-1.788;2023-08-07T07:55:54;104092.34;;;17.97;100.00
25430;BME280;13360;48.152;-1.788;2023-08-07T07:58:19;104105.00;;;18.79;100.00
25430;BME280;13360;48.152;-1.788;2023-08-07T08:00:45;103991.75;;;19.38;100.00
25430;BME280;13360;48.152;-1.788;2023-08-07T08:03:10;103862.50;;;19.49;100.00
25430;BME280;13360;48.152;-1.788;2023-08-07T08:05:35;103762.94;;;19.67;100.00
25430;BME280;13360;48.152;-1.788;2023-08-07T08:08:01;103674.66;;;19.55;100.00
25430;BME280;13360;48.152;-1.788;2023-08-07T08:10:26;103595.31;;;19.54;100.00
25430;BME280;13360;48.152;-1.788;2023-08-07T08:12:51;103563.38;;;20.28;100.00
25430;BME280;13360;48.152;-1.788;2023-08-07T08:15:17;103487.84;;;21.04;100.00
25430;BME280;13360;48.152;-1.788;2023-08-07T08:17:42;103249.09;;;20.80;100.00
25430;BME280;13360;48.152;-1.788;2023-08-07T08:20:07;103211.19;;;21.42;100.00
25430;BME280;13360;48.152;-1.788;2023-08-07T08:22:33;103078.41;;;22.09;100.00
25430;BME280;13360;48.152;-1.788;2023-08-07T08:24:58;102863.94;;;22.38;100.00
25430;BME280;13360;48.152;-1.788;2023-08-07T08:27:24;102725.53;;;22.96;100.00
25430;BME280;13360;48.152;-1.788;2023-08-07T08:29:50;102513.13;;;23.09;100.00
25430;BME280;13360;48.152;-1.788;2023-08-07T08:32:15;102397.91;;;23.58;100.00
25430;BME280;13360;48.152;-1.788;2023-08-07T08:34:40;102316.19;;;23.95;100.00
25430;BME280;13360;48.152;-1.788;2023-08-07T08:37:05;102205.16;;;23.21;100.00
25430;BME280;13360;48.152;-1.788;2023-08-07T08:39:31;102153.97;;;22.44;100.00
25430;BME280;13360;48.152;-1.788;2023-08-07T08:41:56;102121.69;;;21.71;100.00
25430;BME280;13360;48.152;-1.788;2023-08-07T08:44:22;102136.47;;;21.88;100.00
25430;BME280;13360;48.152;-1.788;2023-08-07T08:46:49;102147.50;;;22.65;100.00
25430;BME280;13360;48.152;-1.788;2023-08-07T08:49:18;102121.84;;;22.45;100.00
25430;BME280;13360;48.152;-1.788;2023-08-07T08:51:47;102114.25;;;22.79;100.00
25430;BME280;13360;48.152;-1.788;2023-08-07T08:54:13;102111.41;;;23.57;100.00
25430;BME280;13360;48.152;-1.788;2023-08-07T08:56:39;102081.94;;;24.19;100.00
25430;BME280;13360;48.152;-1.788;2023-08-07T08:59:04;102062.38;;;24.82;100.00
25430;BME280;13360;48.152;-1.788;2023-08-07T09:01:30;102040.69;;;24.86;100.00
25430;BME280;13360;48.152;-1.788;2023-08-07T09:03:55;102036.63;;;25.00;100.00
25430;BME280;13360;48.152;-1.788;2023-08-07T09:06:21;102030.22;;;25.34;100.00
25430;BME280;13360;48.152;-1.788;2023-08-07T09:08:46;102030.00;;;24.96;100.00
25430;BME280;13360;48.152;-1.788;2023-08-07T09:11:12;102017.00;;;23.79;100.00
25430;BME280;13360;48.152;-1.788;2023-08-07T09:13:39;102025.88;;;24.33;100.00
25430;BME280;13360;48.152;-1.788;2023-08-07T09:16:06;102010.81;;;25.01;100.00
25430;BME280;13360;48.152;-1.788;2023-08-07T09:18:33;102016.13;;;25.53;100.00
25430;BME280;13360;48.152;-1.788;2023-08-07T09:20:58;102016.75;;;25.98;100.00
25430;BME280;13360;48.152;-1.788;2023-08-07T09:23:24;102021.09;;;25.41;100.00
25430;BME280;13360;48.152;-1.788;2023-08-07T09:25:58;102021.78;;;24.59;100.00
25430;BME280;13360;48.152;-1.788;2023-08-07T09:28:24;102031.44;;;24.58;100.00
25430;BME280;13360;48.152;-1.788;2023-08-07T09:30:49;102016.31;;;24.10;100.00
25430;BME280;13360;48.152;-1.788;2023-08-07T09:33:19;102034.41;;;23.45;100.00
25430;BME280;13360;48.152;-1.788;2023-08-07T09:35:49;102024.25;;;24.60;100.00
25430;BME280;13360;48.152;-1.788;2023-08-07T09:38:14;102006.47;;;25.54;100.00
25430;BME280;13360;48.152;-1.788;2023-08-07T09:40:39;102014.00;;;26.40;100.00
25430;BME280;13360;48.152;-1.788;2023-08-07T09:43:07;102004.44;;;26.90;100.00
25430;BME280;13360;48.152;-1.788;2023-08-07T09:45:32;101996.81;;;27.17;100.00
25430;BME280;13360;48.152;-1.788;2023-08-07T09:48:03;102000.97;;;27.23;100.00
25430;BME280;13360;48.152;-1.788;2023-08-07T09:50:28;101997.38;;;26.19;100.00
25430;BME280;13360;48.152;-1.788;2023-08-07T09:52:54;101995.47;;;25.18;100.00
25430;BME280;13360;48.152;-1.788;2023-08-07T09:55:28;102007.72;;;24.47;100.00
25430;BME280;13360;48.152;-1.788;2023-08-07T09:57:54;102022.66;;;24.19;100.00
25430;BME280;13360;48.152;-1.788;2023-08-07T10:00:19;102044.59;;;24.26;100.00
25430;BME280;13360;48.152;-1.788;2023-08-07T10:02:45;102012.00;;;25.82;100.00
25430;BME280;13360;48.152;-1.788;2023-08-07T10:05:11;102001.34;;;26.76;100.00
25430;BME280;13360;48.152;-1.788;2023-08-07T10:07:38;101998.78;;;27.40;100.00
25430;BME280;13360;48.152;-1.788;2023-08-07T10:10:03;102007.81;;;27.72;100.00
25430;BME280;13360;48.152;-1.788;2023-08-07T10:12:29;102015.56;;;27.75;100.00
25430;BME280;13360;48.152;-1.788;2023-08-07T10:14:54;102019.06;;;27.15;100.00
25430;BME280;13360;48.152;-1.788;2023-08-07T10:17:23;102007.78;;;25.76;100.00
25430;BME280;13360;48.152;-1.788;2023-08-07T10:19:48;102019.47;;;24.49;100.00
25430;BME280;13360;48.152;-1.788;2023-08-07T10:22:15;102056.97;;;24.61;100.00
25430;BME280;13360;48.152;-1.788;2023-08-07T10:24:40;102023.94;;;25.25;100.00
25430;BME280;13360;48.152;-1.788;2023-08-07T10:27:07;102012.50;;;25.37;100.00
25430;BME280;13360;48.152;-1.788;2023-08-07T10:29:33;102024.63;;;25.38;100.00
25430;BME280;13360;48.152;-1.788;2023-08-07T10:31:59;102020.81;;;25.30;100.00
25430;BME280;13360;48.152;-1.788;2023-08-07T10:34:28;102034.06;;;25.26;100.00
25430;BME280;13360;48.152;-1.788;2023-08-07T10:36:53;102032.34;;;25.21;100.00
25430;BME280;13360;48.152;-1.788;2023-08-07T10:39:18;102013.28;;;25.03;100.00
25430;BME280;13360;48.152;-1.788;2023-08-07T10:41:47;102003.56;;;24.72;100.00
25430;BME280;13360;48.152;-1.788;2023-08-07T10:44:22;102003.25;;;24.46;100.00
25430;BME280;13360;48.152;-1.788;2023-08-07T10:46:49;101990.88;;;24.22;100.00
25430;BME280;13360;48.152;-1.788;2023-08-07T10:49:34;102008.72;;;24.26;100.00
25430;BME280;13360;48.152;-1.788;2023-08-07T10:52:18;102031.66;;;24.37;100.00
25430;BME280;13360;48.152;-1.788;2023-08-07T10:54:47;102024.03;;;24.38;100.00
25430;BME280;13360;48.152;-1.788;2023-08-07T10:57:13;102005.66;;;24.31;100.00
25430;BME280;13360;48.152;-1.788;2023-08-07T11:02:21;101997.44;;;24.26;100.00
25430;BME280;13360;48.152;-1.788;2023-08-07T11:04:46;102011.09;;;24.24;100.00
25430;BME280;13360;48.152;-1.788;2023-08-07T11:07:21;101993.25;;;24.20;100.00
25430;BME280;13360;48.152;-1.788;2023-08-07T11:09:47;102020.75;;;24.23;100.00
25430;BME280;13360;48.152;-1.788;2023-08-07T11:12:12;101985.50;;;24.17;100.00
25430;BME280;13360;48.152;-1.788;2023-08-07T11:14:37;101991.13;;;24.17;100.00
25430;BME280;13360;48.152;-1.788;2023-08-07T11:17:03;102004.44;;;24.17;100.00
25430;BME280;13360;48.152;-1.788;2023-08-07T11:19:28;102017.41;;;24.33;100.00
25430;BME280;13360;48.152;-1.788;2023-08-07T11:21:53;102004.13;;;24.34;100.00
25430;BME280;13360;48.152;-1.788;2023-08-07T11:24:19;101988.78;;;24.19;100.00
25430;BME280;13360;48.152;-1.788;2023-08-07T11:26:46;101975.88;;;24.06;100.00
25430;BME280;13360;48.152;-1.788;2023-08-07T11:29:15;102016.13;;;24.03;100.00
25430;BME280;13360;48.152;-1.788;2023-08-07T11:31:41;102012.94;;;24.05;100.00
25430;BME280;13360;48.152;-1.788;2023-08-07T11:34:06;102015.13;;;24.11;100.00
25430;BME280;13360;48.152;-1.788;2023-08-07T11:36:31;102018.53;;;24.17;100.00
25430;BME280;13360;48.152;-1.788;2023-08-07T11:38:58;101990.41;;;24.20;100.00
25430;BME280;13360;48.152;-1.788;2023-08-07T11:41:23;102001.91;;;24.27;100.00
25430;BME280;13360;48.152;-1.788;2023-08-07T11:43:49;101997.19;;;24.31;100.00
25430;BME280;13360;48.152;-1.788;2023-08-07T11:46:14;101987.91;;;24.31;100.00
25430;BME280;13360;48.152;-1.788;2023-08-07T11:48:40;101969.22;;;24.26;100.00
25430;BME280;13360;48.152;-1.788;2023-08-07T11:51:06;101953.72;;;24.20;100.00
25430;BME280;13360;48.152;-1.788;2023-08-07T11:53:32;101985.63;;;24.09;100.00
25430;BME280;13360;48.152;-1.788;2023-08-07T11:55:58;101988.03;;;23.94;100.00
25430;BME280;13360;48.152;-1.788;2023-08-07T11:58:25;101950.22;;;23.83;100.00
25430;BME280;13360;48.152;-1.788;2023-08-07T12:00:50;101970.47;;;23.73;100.00
25430;BME280;13360;48.152;-1.788;2023-08-07T12:03:29;101981.72;;;23.85;100.00
25430;BME280;13360;48.152;-1.788;2023-08-07T12:05:55;101996.50;;;23.94;100.00
25430;BME280;13360;48.152;-1.788;2023-08-07T12:08:21;101968.19;;;23.91;100.00
25430;BME280;13360;48.152;-1.788;2023-08-07T12:10:50;101983.69;;;23.97;100.00
25430;BME280;13360;48.152;-1.788;2023-08-07T12:13:16;101976.59;;;24.03;100.00
25430;BME280;13360;48.152;-1.788;2023-08-07T12:15:41;101978.44;;;24.11;100.00
25430;BME280;13360;48.152;-1.788;2023-08-07T12:18:07;101982.44;;;24.10;100.00
25430;BME280;13360;48.152;-1.788;2023-08-07T12:20:32;101981.53;;;24.06;100.00
25430;BME280;13360;48.152;-1.788;2023-08-07T12:22:57;101976.16;;;24.01;100.00
25430;BME280;13360;48.152;-1.788;2023-08-07T12:25:23;101984.81;;;24.08;100.00
25430;BME280;13360;48.152;-1.788;2023-08-07T12:27:48;101949.50;;;24.14;100.00
25430;BME280;13360;48.152;-1.788;2023-08-07T12:30:14;101943.84;;;24.14;100.00
25430;BME280;13360;48.152;-1.788;2023-08-07T12:32:39;101961.72;;;24.18;100.00